Emblem, WY (82422)

12:28 PM MST on December 22, 2014 (GMT -0700)
South Big Horn County | Change Station
CLOSE
Current Station
Airport
Location: Greybull,
Elevation: 3934 ft
Nearby Weather Stations
Active Advisory: Special Statement

Elev 3934 ft 44.52 °N, 108.08 °W | Updated 24 minutes ago

Overcast
Overcast
33 °F
Feels Like 22 °F
N
17
Wind Variable Wind from NW

Today
High -- | Low -- °F
--% Chance of Precip.
Yesterday
High -- | Low -- °F
Precip. -- in
7:47 AM 4:37 PM
New Moon, 1% visible
Pressure 29.81 in
Visibility 10.0 miles
Clouds Scattered Clouds 3000 ft
Mostly Cloudy 7000 ft
Overcast 8500 ft
Windchill 22 °F
Dew Point 31 °F
Humidity 92%
Rainfall 0.00 in
Snow Depth Not available.
UV 1 out of 12
Pollen .10 out of 12
Air Quality Not available.
Flu Activity Not available.
SPECI KGEY 221904Z AUTO 32015KT 10SM SCT030 BKN070 OVC085 01/M01 A2981 RMK AO2 SNE1857 P0000 T00061006

More Conditions Fewer Conditions

Pressure 29.81 in
Visibility 10.0 miles
Clouds Scattered Clouds 3000 ft
Mostly Cloudy 7000 ft
Overcast 8500 ft
Windchill 22 °F
Dew Point 31 °F
Humidity 92%
Rainfall 0.00 in
Snow Depth Not available.
UV 1 out of 12
Pollen .10 out of 12
Air Quality Not available.
Flu Activity Not available.
SPECI KGEY 221904Z AUTO 32015KT 10SM SCT030 BKN070 OVC085 01/M01 A2981 RMK AO2 SNE1857 P0000 T00061006

More Conditions Fewer Conditions

10-Day Weather Forecast

Almanac

Astronomy

Dec. 22, 2014 Rise Set
Actual Time
Civil Twilight
Nautical Twilight
Astronomical Twilight
Moon
Length of Visible Light
Length of Day
Tomorrow will be .
, % of the Moon is Illuminated

Today's Extremes

State Highs State Lows

Community

WunderPhotos

Upload Photos

1,779,693 photos uploaded!

WunderBlogs® & News

Nearby

Air Quality

  Air Quality AQ Index Pollutant
Not available.

Snow Depth

Station Depth Elevation

Earthquake Activity

City Distance Mag. Time & Date
Minimum magnitude displayed is 2.5.

Coastal Water Temperatures

Place Temperature

Nearby Weather Stations